Time;durP1;ratioP1;P1;durP2;ratioP2;P2;SDS_P1;SDS_P2;PMS_P1;PMS_P2;Temp;Humidity;BMP_temperature;BMP_pressure;BME280_temperature;BME280_humidity;BME280_pressure;Samples;Min_cycle;Max_cycle;Signal;HPM_P1;HPM_P2
2022/12/13 00:01:33;;;;;;;4.28;2.20;;;;;;;15.29;51.02;97696.44;4921840;29;20536;-80
2022/12/13 00:04:03;;;;;;;4.40;2.63;;;;;;;15.27;50.79;97697.47;4921635;29;20091;-81
2022/12/13 00:06:29;;;;;;;4.43;2.38;;;;;;;15.27;50.97;97703.56;4904594;29;20051;-81
2022/12/13 00:08:55;;;;;;;3.97;2.40;;;;;;;15.29;50.90;97730.59;4921516;29;20035;-80
2022/12/13 00:11:21;;;;;;;4.20;2.13;;;;;;;15.27;51.03;97698.31;4921269;29;20465;-81
2022/12/13 00:13:46;;;;;;;4.13;2.10;;;;;;;15.25;51.30;97687.06;4903591;29;20143;-80
2022/12/13 00:16:21;;;;;;;3.42;2.03;;;;;;;15.27;51.07;97706.19;4921491;29;20032;-81
2022/12/13 00:18:51;;;;;;;3.78;1.98;;;;;;;15.28;50.70;97717.56;4927369;29;20040;-82
2022/12/13 00:21:19;;;;;;;3.67;1.80;;;;;;;15.25;50.91;97709.88;4929786;29;20024;-82
2022/12/13 00:23:45;;;;;;;4.93;2.53;;;;;;;15.26;50.86;97701.88;4929897;29;20485;-83
2022/12/13 00:26:13;;;;;;;3.80;2.00;;;;;;;15.27;51.14;97705.34;4928377;29;20040;-81
2022/12/13 00:28:48;;;;;;;3.80;2.05;;;;;;;15.27;51.12;97693.03;4931813;29;20028;-83
2022/12/13 00:31:14;;;;;;;2.90;1.88;;;;;;;15.27;50.98;97682.53;4931240;29;20024;-82
2022/12/13 00:33:40;;;;;;;3.70;1.83;;;;;;;15.26;50.98;97685.28;4912085;29;20028;-83
2022/12/13 00:36:07;;;;;;;3.80;1.85;;;;;;;15.26;51.10;97701.06;4928938;29;20396;-83
2022/12/13 00:38:33;;;;;;;3.58;1.73;;;;;;;15.26;50.93;97694.00;4926663;29;20123;-81
2022/12/13 00:40:59;;;;;;;3.42;1.67;;;;;;;15.23;50.88;97665.31;4927178;29;20027;-82
2022/12/13 00:43:24;;;;;;;3.53;1.63;;;;;;;15.23;50.97;97654.78;4909862;29;20114;-82
2022/12/13 00:45:50;;;;;;;3.20;1.60;;;;;;;15.21;50.79;97672.44;4925990;29;20031;-82
2022/12/13 00:48:15;;;;;;;3.40;1.80;;;;;;;15.23;50.90;97688.94;4926342;29;20046;-82
2022/12/13 00:50:41;;;;;;;3.38;1.90;;;;;;;15.21;51.12;97676.84;4926546;29;20084;-83
2022/12/13 00:53:06;;;;;;;4.15;1.88;;;;;;;15.20;51.06;97683.88;4927008;29;20358;-82
2022/12/13 00:55:32;;;;;;;3.40;1.73;;;;;;;15.21;50.81;97682.94;4929105;29;20036;-81
2022/12/13 00:57:57;;;;;;;2.65;1.30;;;;;;;15.21;51.02;97677.69;4931965;29;20107;-82
2022/12/13 01:00:24;;;;;;;2.95;1.60;;;;;;;15.23;50.97;97664.44;4910094;29;20024;-82
2022/12/13 01:02:51;;;;;;;4.22;2.28;;;;;;;15.21;50.88;97650.59;4914993;29;20063;-83
2022/12/13 01:05:17;;;;;;;3.25;1.70;;;;;;;15.18;50.91;97672.66;4931263;29;20445;-83
2022/12/13 01:07:43;;;;;;;4.13;1.52;;;;;;;15.21;51.11;97677.69;4933735;29;20056;-83
2022/12/13 01:10:11;;;;;;;2.78;1.60;;;;;;;15.21;50.90;97676.84;4928947;29;20036;-82
2022/12/13 01:12:38;;;;;;;3.30;1.40;;;;;;;15.16;50.92;97670.09;4923671;29;20096;-81
2022/12/13 01:15:05;;;;;;;2.88;1.40;;;;;;;15.17;50.90;97676.22;4923123;29;20079;-81
2022/12/13 01:17:30;;;;;;;3.38;1.70;;;;;;;15.19;51.05;97679.56;4923961;29;20476;-82
2022/12/13 01:19:55;;;;;;;3.08;1.40;;;;;;;15.20;51.03;97670.75;4924372;29;20032;-82
2022/12/13 01:22:22;;;;;;;3.05;1.58;;;;;;;15.16;51.01;97658.78;4923848;29;20028;-81
2022/12/13 01:24:47;;;;;;;3.28;1.60;;;;;;;15.15;50.90;97662.31;4923253;29;20024;-82
2022/12/13 01:27:13;;;;;;;3.20;1.50;;;;;;;15.16;51.09;97664.03;4923109;29;20056;-82
2022/12/13 01:29:38;;;;;;;2.83;1.50;;;;;;;15.18;51.07;97672.66;4922627;29;20112;-82
2022/12/13 01:32:04;;;;;;;3.60;1.80;;;;;;;15.17;50.83;97660.44;4921912;29;20039;-82
2022/12/13 01:34:29;;;;;;;2.88;1.30;;;;;;;15.15;50.87;97667.56;4922757;29;20028;-82
2022/12/13 01:36:55;;;;;;;3.00;1.50;;;;;;;15.14;51.04;97666.75;4923443;29;20032;-82
2022/12/13 01:39:21;;;;;;;2.80;1.60;;;;;;;15.13;51.11;97658.97;4923770;29;20043;-82
2022/12/13 01:41:58;;;;;;;2.45;0.98;;;;;;;15.12;51.07;97659.91;4923809;29;20028;-82
2022/12/13 01:44:54;;;;;;;2.25;1.17;;;;;;;15.14;51.02;97650.13;4922840;29;20036;-82
2022/12/13 01:47:31;;;;;;;2.20;1.20;;;;;;;15.12;50.92;97652.84;4922843;29;20031;-82
2022/12/13 01:50:01;;;;;;;3.10;1.35;;;;;;;15.13;51.00;97656.34;4922695;29;20042;-82
2022/12/13 01:52:30;;;;;;;2.72;1.20;;;;;;;15.13;50.78;97664.22;4921854;29;20674;-81
2022/12/13 01:54:58;;;;;;;2.30;1.17;;;;;;;15.13;50.89;97648.44;4920869;29;20119;-81
2022/12/13 01:57:24;;;;;;;2.63;1.40;;;;;;;15.11;51.02;97660.84;4920431;29;20032;-81
2022/12/13 01:59:52;;;;;;;1.92;1.15;;;;;;;15.11;51.03;97655.59;4920196;29;20035;-81
2022/12/13 02:02:17;;;;;;;2.05;1.20;;;;;;;15.10;51.04;97665.25;4921165;29;20040;-82
2022/12/13 02:04:57;;;;;;;2.58;1.35;;;;;;;15.10;50.75;97674.91;4922100;29;20016;-81
2022/12/13 02:07:30;;;;;;;2.58;1.48;;;;;;;15.11;50.87;97666.09;4922787;29;20032;-81
2022/12/13 02:09:58;;;;;;;2.92;1.38;;;;;;;15.11;50.79;97680.06;4921730;29;20110;-81
2022/12/13 02:12:29;;;;;;;1.67;1.05;;;;;;;15.13;51.07;97669.47;4921936;29;20498;-81
2022/12/13 02:14:56;;;;;;;3.80;1.45;;;;;;;15.10;50.73;97654.75;4921281;29;20051;-82
2022/12/13 02:17:46;;;;;;;1.90;1.00;;;;;;;15.09;50.73;97660.94;4904549;29;20028;-81
2022/12/13 02:20:37;;;;;;;4.57;1.27;;;;;;;15.11;50.90;97674.00;4920805;29;20520;-82
2022/12/13 02:23:08;;;;;;;2.10;1.30;;;;;;;15.12;50.95;97659.91;4921920;29;20448;-80
2022/12/13 02:26:06;;;;;;;2.47;1.30;;;;;;;15.09;50.90;97663.56;4904514;29;20424;-82
2022/12/13 02:28:32;;;;;;;2.13;1.05;;;;;;;15.10;50.96;97673.13;4908774;29;20520;-81
2022/12/13 02:31:23;;;;;;;3.28;1.33;;;;;;;15.10;50.89;97693.28;4922893;29;20107;-82
2022/12/13 02:33:55;;;;;;;2.22;1.25;;;;;;;15.06;50.79;97670.81;4922383;29;20036;-81
2022/12/13 02:36:30;;;;;;;2.30;1.00;;;;;;;15.08;51.06;97705.69;4921791;29;20028;-81
2022/12/13 02:39:02;;;;;;;2.15;1.00;;;;;;;15.09;50.86;97691.63;4903867;29;20078;-82
2022/12/13 02:41:45;;;;;;;3.13;1.13;;;;;;;15.09;50.64;97683.72;4924340;29;20020;-82
2022/12/13 02:44:21;;;;;;;1.35;0.85;;;;;;;15.08;50.85;97703.06;4927171;29;20028;-82
2022/12/13 02:47:05;;;;;;;2.13;1.08;;;;;;;15.09;50.93;97691.63;4926488;29;20084;-82
2022/12/13 02:49:34;;;;;;;2.15;1.00;;;;;;;15.07;50.86;97685.63;4926703;29;20038;-82
2022/12/13 02:52:00;;;;;;;2.47;1.15;;;;;;;15.05;50.74;97693.59;4909469;29;20039;-83
2022/12/13 02:54:26;;;;;;;2.17;1.00;;;;;;;15.03;50.73;97675.31;4926706;29;20540;-83
2022/12/13 02:56:55;;;;;;;1.80;0.95;;;;;;;15.05;51.08;97695.41;4925874;29;20099;-81
2022/12/13 02:59:25;;;;;;;2.30;1.10;;;;;;;15.02;50.84;97720.91;4924531;29;20044;-82
2022/12/13 03:02:09;;;;;;;2.35;1.35;;;;;;;15.01;50.83;97713.97;4910692;29;20025;-82
2022/12/13 03:08:02;;;;;;;1.27;0.77;;;;;;;14.99;50.84;97678.25;4929905;29;20039;-82
2022/12/13 03:10:35;;;;;;;1.63;0.82;;;;;;;15.02;50.76;97741.91;4910211;29;20277;-82
2022/12/13 03:15:59;;;;;;;2.30;1.23;;;;;;;15.00;50.89;97707.03;4922304;29;20134;-82
2022/12/13 03:18:31;;;;;;;1.88;1.00;;;;;;;15.02;51.09;97699.91;4921993;29;20168;-82
2022/12/13 03:21:08;;;;;;;2.15;1.20;;;;;;;15.01;50.96;97687.72;4926311;29;20032;-82
2022/12/13 03:23:35;;;;;;;1.38;0.80;;;;;;;14.99;50.99;97689.59;4927599;29;20036;-83
2022/12/13 03:26:08;;;;;;;2.38;1.17;;;;;;;15.01;51.06;97692.13;4925003;29;20040;-83
2022/12/13 03:28:33;;;;;;;1.75;0.90;;;;;;;15.02;50.68;97692.00;4924281;29;20035;-81
2022/12/13 03:30:58;;;;;;;1.85;0.93;;;;;;;15.02;51.00;97673.63;4925848;29;20039;-82
2022/12/13 03:33:24;;;;;;;2.05;1.00;;;;;;;14.99;50.98;97679.09;4924465;29;20556;-82
2022/12/13 03:35:50;;;;;;;1.73;1.02;;;;;;;14.98;50.90;97687.06;4905822;29;20043;-82
2022/12/13 03:38:17;;;;;;;1.55;0.80;;;;;;;14.96;51.28;97694.22;4917834;29;20032;-81
2022/12/13 03:40:43;;;;;;;1.77;0.90;;;;;;;14.97;50.90;97696.72;4900666;29;20028;-80
2022/12/13 03:43:09;;;;;;;1.77;0.77;;;;;;;14.96;51.08;97691.59;4922069;29;20028;-82
2022/12/13 03:45:34;;;;;;;1.60;0.85;;;;;;;14.98;51.12;97687.91;4925819;29;20048;-82
2022/12/13 03:48:00;;;;;;;2.10;1.00;;;;;;;15.00;51.12;97707.03;4928926;29;20043;-82
2022/12/13 03:50:25;;;;;;;2.25;0.90;;;;;;;14.97;50.99;97701.97;4914212;29;20028;-82
2022/12/13 03:52:57;;;;;;;2.47;1.20;;;;;;;14.96;50.97;97708.16;4928264;29;20035;-82
2022/12/13 03:55:22;;;;;;;1.35;0.88;;;;;;;14.99;51.19;97715.00;4927631;29;20025;-82
2022/12/13 03:57:48;;;;;;;2.05;0.90;;;;;;;14.97;50.93;97715.09;4926666;29;20039;-81
2022/12/13 04:00:14;;;;;;;2.13;1.00;;;;;;;14.97;51.01;97712.47;4929010;29;20032;-82
2022/12/13 04:02:39;;;;;;;2.10;1.10;;;;;;;14.95;51.13;97735.38;4928227;29;20038;-82
2022/12/13 04:05:05;;;;;;;2.05;0.95;;;;;;;14.97;51.08;97722.97;4929446;29;20052;-83
2022/12/13 04:07:30;;;;;;;1.70;0.90;;;;;;;14.97;51.09;97717.72;4929527;29;20034;-82
2022/12/13 04:09:56;;;;;;;1.13;0.70;;;;;;;14.93;51.27;97712.78;4930264;29;20024;-81
2022/12/13 04:15:06;;;;;;;2.15;1.10;;;;;;;14.96;51.27;97720.47;4931571;29;20114;-83
2022/12/13 04:17:31;;;;;;;2.65;1.10;;;;;;;14.94;51.28;97722.34;4914111;29;20032;-82
2022/12/13 04:19:57;;;;;;;1.08;0.70;;;;;;;14.95;51.22;97709.13;4915690;29;20040;-82
2022/12/13 04:22:22;;;;;;;2.17;0.98;;;;;;;14.96;50.97;97709.97;4931941;29;20060;-82
2022/12/13 04:24:48;;;;;;;1.80;0.80;;;;;;;14.95;51.23;97710.88;4908000;29;20024;-82
2022/12/13 04:27:13;;;;;;;1.52;0.70;;;;;;;14.94;51.03;97712.69;4906878;29;20401;-81
2022/12/13 04:29:38;;;;;;;1.35;0.80;;;;;;;14.96;51.20;97710.78;4923541;29;20059;-82
2022/12/13 04:32:04;;;;;;;1.95;0.98;;;;;;;14.95;51.10;97714.38;4906822;29;20063;-82
2022/12/13 04:34:30;;;;;;;1.83;1.02;;;;;;;14.96;50.99;97718.66;4923587;29;20050;-82
2022/12/13 04:36:55;;;;;;;1.42;0.93;;;;;;;14.93;51.16;97711.00;4926068;29;20040;-82
2022/12/13 04:39:20;;;;;;;1.85;0.88;;;;;;;14.94;51.08;97712.69;4929656;29;20036;-82
2022/12/13 04:41:46;;;;;;;0.60;0.45;;;;;;;14.95;51.28;97722.25;4910470;29;20031;-81
2022/12/13 04:44:11;;;;;;;1.70;0.90;;;;;;;14.93;51.07;97711.00;4927387;29;20035;-81
2022/12/13 04:46:37;;;;;;;1.45;0.90;;;;;;;14.92;51.24;97706.69;4928670;29;20036;-82
2022/12/13 04:49:02;;;;;;;1.70;0.90;;;;;;;14.92;51.15;97704.06;4928597;29;20032;-82
2022/12/13 04:51:28;;;;;;;1.70;0.88;;;;;;;14.94;51.29;97706.56;4928341;29;20080;-82
2022/12/13 04:53:53;;;;;;;1.45;0.80;;;;;;;14.93;51.02;97716.25;4928739;29;20115;-82
2022/12/13 04:56:19;;;;;;;1.75;0.95;;;;;;;14.93;51.34;97705.75;4928041;29;20028;-82
2022/12/13 04:58:44;;;;;;;2.00;0.95;;;;;;;14.93;51.18;97699.66;4928063;29;20040;-82
2022/12/13 05:01:10;;;;;;;1.90;0.90;;;;;;;14.91;51.23;97707.63;4929028;29;20031;-81
2022/12/13 05:03:37;;;;;;;1.38;0.80;;;;;;;14.91;51.23;97707.63;4928592;29;20125;-82
2022/12/13 05:06:07;;;;;;;2.67;1.10;;;;;;;14.89;51.38;97709.50;4928948;29;20461;-82
2022/12/13 05:08:34;;;;;;;1.38;0.73;;;;;;;14.91;51.26;97720.75;4928499;29;20114;-82
2022/12/13 05:11:00;;;;;;;2.38;0.80;;;;;;;14.92;51.11;97729.47;4929687;29;20032;-82
2022/12/13 05:13:26;;;;;;;1.90;1.00;;;;;;;14.92;51.23;97719.81;4914204;29;20060;-82
2022/12/13 05:15:59;;;;;;;1.58;0.80;;;;;;;14.88;51.21;97728.84;4931058;29;20059;-81
2022/12/13 05:18:25;;;;;;;1.52;0.70;;;;;;;14.90;51.23;97733.06;4930885;29;20036;-83
2022/12/13 05:21:11;;;;;;;1.38;0.93;;;;;;;14.91;51.43;97739.13;4930772;29;20059;-82
2022/12/13 05:23:37;;;;;;;2.35;1.00;;;;;;;14.88;51.07;97741.97;4910783;29;20119;-83
2022/12/13 05:26:04;;;;;;;1.55;0.80;;;;;;;14.88;51.47;97755.09;4908795;29;20028;-82
2022/12/13 05:28:29;;;;;;;1.70;0.70;;;;;;;14.89;51.12;97756.78;4926278;29;20034;-82
2022/12/13 05:30:57;;;;;;;2.22;0.80;;;;;;;14.90;51.29;97755.84;4927113;29;20059;-82
2022/12/13 05:33:25;;;;;;;2.33;0.90;;;;;;;14.89;51.24;97759.41;4943313;29;20145;-82
2022/12/13 05:35:51;;;;;;;2.10;0.90;;;;;;;14.90;51.41;97758.47;4928063;29;20036;-82
2022/12/13 05:38:17;;;;;;;2.42;1.10;;;;;;;14.88;51.42;97762.97;4929585;29;20032;-82
2022/12/13 05:40:42;;;;;;;2.58;0.90;;;;;;;14.85;51.34;97760.53;4931772;29;20024;-83
2022/12/13 05:43:10;;;;;;;1.95;0.93;;;;;;;14.89;51.40;97762.88;4928551;29;20028;-82
2022/12/13 05:45:35;;;;;;;1.67;0.90;;;;;;;14.89;51.39;97777.78;4926117;29;20110;-82
2022/12/13 05:48:01;;;;;;;1.58;0.80;;;;;;;14.87;51.19;97779.69;4925928;29;20123;-82
2022/12/13 05:50:26;;;;;;;3.78;1.20;;;;;;;14.88;51.27;97770.84;4925319;29;20027;-83
2022/12/13 05:52:52;;;;;;;1.23;0.60;;;;;;;14.88;51.51;97765.59;4924034;29;20112;-81
2022/12/13 05:55:17;;;;;;;1.52;0.90;;;;;;;14.86;51.27;97768.31;4924682;29;20024;-82
2022/12/13 05:57:43;;;;;;;1.88;1.10;;;;;;;14.87;51.23;97779.69;4928140;29;20032;-81
2022/12/13 06:00:09;;;;;;;2.42;0.80;;;;;;;14.88;51.46;97781.34;4922614;29;20036;-80
2022/12/13 06:02:40;;;;;;;1.55;0.90;;;;;;;14.87;51.57;97784.94;4922147;29;20133;-82
2022/12/13 06:05:05;;;;;;;1.90;1.10;;;;;;;14.87;51.52;97796.25;4922143;29;20118;-82
2022/12/13 06:07:31;;;;;;;2.03;0.80;;;;;;;14.85;51.50;97798.16;4904185;29;20059;-81
2022/12/13 06:09:57;;;;;;;2.03;0.80;;;;;;;14.86;51.43;97788.47;4922054;29;20032;-81
2022/12/13 06:12:23;;;;;;;2.03;0.80;;;;;;;14.88;51.33;97797.13;4920007;29;20028;-81
2022/12/13 06:14:49;;;;;;;1.48;0.93;;;;;;;14.85;51.34;97798.16;4934205;29;20108;-81
2022/12/13 06:17:14;;;;;;;1.50;0.93;;;;;;;14.86;51.51;97815.59;4919842;29;20052;-82
2022/12/13 06:19:39;;;;;;;1.58;0.82;;;;;;;14.86;51.32;97814.72;4920306;29;20036;-80
2022/12/13 06:22:05;;;;;;;1.27;0.73;;;;;;;14.84;51.47;97816.63;4920395;29;20032;-81
2022/12/13 06:24:30;;;;;;;1.55;0.70;;;;;;;14.86;51.48;97825.22;4920235;29;20541;-81
2022/12/13 06:26:57;;;;;;;0.88;0.63;;;;;;;14.88;51.41;97823.38;4920800;29;20083;-81
2022/12/13 06:29:23;;;;;;;1.83;0.75;;;;;;;14.85;51.54;97813.03;4920674;29;20039;-81
2022/12/13 06:31:58;;;;;;;1.90;0.90;;;;;;;14.87;51.37;97816.44;4920071;29;20485;-81
2022/12/13 06:34:23;;;;;;;2.20;0.80;;;;;;;14.85;51.51;97819.16;4920551;29;20239;-81
2022/12/13 06:36:49;;;;;;;2.40;1.10;;;;;;;14.82;51.71;97842.13;4921573;29;20111;-82
2022/12/13 06:39:14;;;;;;;2.55;0.80;;;;;;;14.86;51.32;97833.13;4921497;29;20063;-81
2022/12/13 06:41:40;;;;;;;1.63;0.95;;;;;;;14.84;51.37;97838.47;4921951;29;20036;-81
2022/12/13 06:44:05;;;;;;;1.65;0.90;;;;;;;14.82;51.60;97834.25;4903397;29;20400;-82
2022/12/13 06:46:31;;;;;;;1.35;0.80;;;;;;;14.82;51.40;97834.25;4903486;29;20167;-81
2022/12/13 06:48:56;;;;;;;1.63;0.80;;;;;;;14.86;51.39;97841.00;4921576;29;20199;-81
2022/12/13 06:51:22;;;;;;;1.23;0.68;;;;;;;14.80;51.55;97830.88;4921329;29;20032;-81
2022/12/13 06:53:47;;;;;;;1.40;0.88;;;;;;;14.82;51.46;97834.25;4904405;29;20034;-82
2022/12/13 06:56:14;;;;;;;1.27;0.82;;;;;;;14.85;51.59;97847.19;4922917;29;20032;-82
2022/12/13 06:58:40;;;;;;;1.38;0.70;;;;;;;14.83;51.68;97836.81;4923671;29;20416;-82
2022/12/13 07:01:14;;;;;;;1.15;0.70;;;;;;;14.85;51.52;97844.56;4923484;29;20025;-81
2022/12/13 07:03:41;;;;;;;1.30;0.70;;;;;;;14.85;51.66;97855.94;4924282;29;20032;-82
2022/12/13 07:06:15;;;;;;;2.00;0.80;;;;;;;14.85;51.48;97860.31;4925122;29;20039;-82
2022/12/13 07:08:42;;;;;;;1.42;0.65;;;;;;;14.84;51.74;97861.25;4925676;29;20032;-81
2022/12/13 07:11:16;;;;;;;1.70;1.10;;;;;;;14.83;51.51;97867.47;4922842;29;20089;-81
2022/12/13 07:13:42;;;;;;;2.13;1.00;;;;;;;14.81;51.59;97870.16;4905319;29;20213;-81
2022/12/13 07:16:07;;;;;;;1.30;0.77;;;;;;;14.83;51.52;97868.31;4922140;29;20020;-81
2022/12/13 07:18:33;;;;;;;0.90;0.50;;;;;;;14.84;51.51;97863.88;4903348;29;20035;-80
2022/12/13 07:20:58;;;;;;;1.40;0.80;;;;;;;14.82;51.67;97873.66;4921741;29;20107;-82
2022/12/13 07:23:24;;;;;;;1.20;0.70;;;;;;;14.79;51.57;97865.94;4903010;29;20396;-81
2022/12/13 07:25:52;;;;;;;2.10;1.02;;;;;;;14.83;51.36;97870.94;4920766;29;20422;-82
2022/12/13 07:28:17;;;;;;;2.35;1.00;;;;;;;14.80;51.77;97872.88;4918854;29;20024;-80
2022/12/13 07:30:43;;;;;;;1.50;0.90;;;;;;;14.83;51.55;97878.81;4918686;29;20404;-81
2022/12/13 07:33:09;;;;;;;1.63;0.80;;;;;;;14.84;51.54;97884.91;4918357;29;20035;-81
2022/12/13 07:35:35;;;;;;;1.45;0.80;;;;;;;14.85;51.68;97886.59;4919628;29;20295;-81
2022/12/13 07:38:00;;;;;;;1.83;0.95;;;;;;;14.83;51.67;97877.97;4917377;29;20115;-80
2022/12/13 07:40:26;;;;;;;1.83;0.98;;;;;;;14.83;51.54;97893.72;4919209;29;20033;-81
2022/12/13 07:42:52;;;;;;;1.85;1.00;;;;;;;14.83;51.70;97891.09;4917298;29;20028;-82
2022/12/13 07:45:19;;;;;;;1.60;0.82;;;;;;;14.82;51.51;97892.03;4919881;29;20063;-80
2022/12/13 07:47:45;;;;;;;1.60;1.00;;;;;;;14.83;51.65;97894.56;4920452;29;20064;-80
2022/12/13 07:50:11;;;;;;;1.75;1.00;;;;;;;14.85;51.70;97904.97;4920606;29;20106;-80
2022/12/13 07:52:36;;;;;;;2.10;0.90;;;;;;;14.81;51.68;97911.34;4923762;29;20489;-80
2022/12/13 07:55:06;;;;;;;2.53;1.23;;;;;;;14.83;51.81;97904.22;4920413;29;20024;-80
2022/12/13 07:57:31;;;;;;;2.53;1.20;;;;;;;14.80;51.85;97907.00;4920500;29;20076;-81
2022/12/13 07:59:57;;;;;;;2.78;1.08;;;;;;;14.82;51.83;97913.03;4921357;29;20032;-80
2022/12/13 08:02:25;;;;;;;3.58;1.35;;;;;;;14.82;51.78;97915.66;4922872;29;20457;-82
2022/12/13 08:04:51;;;;;;;2.65;1.25;;;;;;;14.82;51.96;97918.28;4924320;29;20024;-82
2022/12/13 08:07:17;;;;;;;5.07;1.63;;;;;;;14.83;51.66;97909.47;4926074;29;20025;-82
2022/12/13 08:09:42;;;;;;;3.33;1.42;;;;;;;14.82;51.63;97918.28;4907352;29;20028;-81
2022/12/13 08:12:08;;;;;;;3.92;1.35;;;;;;;14.80;51.69;97923.63;4909699;29;20031;-81
2022/12/13 08:14:33;;;;;;;3.78;1.30;;;;;;;14.80;51.96;97946.41;4936394;29;20074;-82
2022/12/13 08:16:59;;;;;;;3.70;1.17;;;;;;;14.81;51.81;97945.50;4924347;29;20020;-83
2022/12/13 08:19:25;;;;;;;2.90;1.13;;;;;;;14.82;51.76;97941.94;4938067;29;20028;-83
2022/12/13 08:21:55;;;;;;;2.42;1.10;;;;;;;14.80;51.90;97934.13;4934268;29;20500;-82
2022/12/13 08:24:24;;;;;;;2.97;1.50;;;;;;;14.82;51.97;97949.81;4928009;29;20060;-82
2022/12/13 08:26:50;;;;;;;2.25;1.30;;;;;;;14.80;51.77;97952.53;4911133;29;20051;-82
2022/12/13 08:29:20;;;;;;;1.60;1.02;;;;;;;14.80;51.71;97952.53;4929611;29;20056;-82
2022/12/13 08:31:45;;;;;;;2.42;1.40;;;;;;;14.79;51.69;97942.09;4930116;29;20036;-82
2022/12/13 08:34:11;;;;;;;2.25;1.20;;;;;;;14.77;51.86;97948.28;4930368;29;20060;-82
2022/12/13 08:36:36;;;;;;;2.63;1.40;;;;;;;14.79;51.72;97944.72;4912942;29;20028;-82
2022/12/13 08:39:03;;;;;;;2.42;1.40;;;;;;;14.75;52.07;97950.16;4912962;29;20133;-82
2022/12/13 08:41:29;;;;;;;3.80;1.42;;;;;;;14.82;51.78;97949.81;4930169;29;20056;-81
2022/12/13 08:43:55;;;;;;;3.00;1.00;;;;;;;14.77;51.85;97942.19;4927463;29;20040;-82
2022/12/13 08:46:20;;;;;;;3.20;1.30;;;;;;;14.79;51.92;97942.97;4920123;29;20053;-81
2022/12/13 08:48:46;;;;;;;2.25;1.20;;;;;;;14.81;51.83;97942.88;4919472;29;20032;-82
2022/12/13 08:51:16;;;;;;;2.25;1.25;;;;;;;14.80;52.10;97938.53;4923317;29;20025;-83
2022/12/13 08:53:42;;;;;;;2.53;1.20;;;;;;;14.84;51.74;97934.78;4915767;29;20084;-82
2022/12/13 08:56:10;;;;;;;2.50;1.33;;;;;;;14.82;52.06;97940.13;4924927;29;20032;-83
2022/12/13 08:58:37;;;;;;;2.78;1.63;;;;;;;14.83;52.14;97943.63;4931925;29;20382;-82
2022/12/13 09:01:07;;;;;;;3.50;1.60;;;;;;;14.82;52.19;97947.19;4931630;29;20052;-82
2022/12/13 09:03:34;;;;;;;3.47;1.70;;;;;;;14.80;52.18;97951.66;4930476;29;20021;-82
2022/12/13 09:06:15;;;;;;;3.30;1.70;;;;;;;14.81;52.15;97948.94;4938265;29;20020;-83
2022/12/13 09:19:55;;;;;;;4.88;2.05;;;;;;;14.82;52.18;97981.31;4991647;23;20083;-83
2022/12/13 09:22:21;;;;;;;5.88;2.15;;;;;;;14.82;52.11;97976.91;4941911;29;20508;-83
2022/12/13 09:24:47;;;;;;;5.63;2.10;;;;;;;14.81;52.59;97971.75;4964580;29;20378;-83
2022/12/13 09:27:13;;;;;;;5.82;2.42;;;;;;;14.79;52.27;97970.97;4952261;29;20030;-82
2022/12/13 09:29:38;;;;;;;5.20;2.22;;;;;;;14.77;52.59;97966.66;4952893;29;20032;-83
2022/12/13 09:32:07;;;;;;;4.07;1.70;;;;;;;14.79;52.41;97960.47;4954299;29;20012;-83
2022/12/13 09:34:33;;;;;;;5.28;2.30;;;;;;;14.77;52.46;97956.16;4961327;29;20023;-83
2022/12/13 09:36:59;;;;;;;5.72;2.13;;;;;;;14.79;52.28;97955.22;4971845;29;20016;-83
2022/12/13 09:39:24;;;;;;;6.28;2.50;;;;;;;14.77;52.35;97953.53;4955033;29;20039;-82
2022/12/13 09:41:54;;;;;;;6.13;2.22;;;;;;;14.82;52.47;97970.81;4954601;29;20023;-82
2022/12/13 09:44:25;;;;;;;5.65;2.30;;;;;;;14.86;52.43;97977.56;4955072;29;20032;-82
2022/12/13 09:46:53;;;;;;;6.03;2.92;;;;;;;14.81;52.34;97980.47;4952919;29;20043;-83
2022/12/13 09:49:33;;;;;;;6.45;2.08;;;;;;;14.84;52.30;97988.19;4954848;29;20036;-83
2022/12/13 09:52:01;;;;;;;9.02;2.58;;;;;;;14.80;52.55;97988.44;4954396;29;20031;-82
2022/12/13 09:54:28;;;;;;;7.50;2.88;;;;;;;14.82;52.53;97983.94;4954526;29;20055;-83
2022/12/13 09:56:57;;;;;;;7.68;2.63;;;;;;;14.80;52.69;97988.44;4953474;29;20027;-83
2022/12/13 09:59:30;;;;;;;6.57;2.60;;;;;;;14.82;52.42;97997.91;4953114;29;20028;-82
2022/12/13 10:02:01;;;;;;;3.63;1.88;;;;;;;14.84;52.24;98005.69;4953477;29;20065;-83
2022/12/13 10:04:28;;;;;;;8.82;2.72;;;;;;;14.84;52.68;98010.94;4954033;29;20028;-83
2022/12/13 10:06:58;;;;;;;6.20;2.38;;;;;;;14.84;52.40;98005.69;4953798;29;20079;-83
2022/12/13 10:09:24;;;;;;;5.88;2.13;;;;;;;14.86;52.52;98020.44;4953602;29;20019;-83
2022/12/13 10:11:52;;;;;;;5.15;2.10;;;;;;;14.87;52.37;98016.88;4953660;29;20055;-80
2022/12/13 10:14:35;;;;;;;6.63;2.47;;;;;;;14.83;52.79;98014.53;4958084;29;20007;-83
2022/12/13 10:17:06;;;;;;;4.13;1.90;;;;;;;14.86;52.39;98016.94;4954510;29;20102;-82
2022/12/13 10:19:38;;;;;;;5.03;1.67;;;;;;;14.84;52.67;98003.06;4951878;28;20054;-82
2022/12/13 10:22:08;;;;;;;5.32;2.63;;;;;;;14.85;52.50;97999.50;4950639;29;20039;-83
2022/12/13 10:24:54;;;;;;;4.32;1.85;;;;;;;14.89;52.58;98015.03;4955343;29;20022;-82
2022/12/13 10:27:28;;;;;;;4.32;1.98;;;;;;;14.88;52.33;98002.78;4955720;29;20032;-82
2022/12/13 10:29:58;;;;;;;4.50;2.03;;;;;;;14.87;52.71;98005.53;4955257;29;20031;-82
2022/12/13 10:32:24;;;;;;;4.35;1.85;;;;;;;14.88;52.31;97999.34;4957198;29;20012;-83
2022/12/13 10:34:50;;;;;;;3.97;2.13;;;;;;;14.87;52.49;98010.78;4957721;29;20051;-83
2022/12/13 10:37:27;;;;;;;3.90;2.03;;;;;;;14.85;52.60;98004.75;4941349;29;20067;-83
2022/12/13 10:39:53;;;;;;;4.63;2.20;;;;;;;14.86;52.53;98009.94;4958629;29;20510;-83
2022/12/13 10:42:20;;;;;;;3.35;1.80;;;;;;;14.83;52.77;97993.50;4940197;29;20020;-83
2022/12/13 10:44:47;;;;;;;4.05;2.30;;;;;;;14.83;52.74;97988.25;4957664;29;20015;-83
2022/12/13 10:47:19;;;;;;;3.88;2.03;;;;;;;14.88;52.91;97992.28;4957447;29;20091;-83
2022/12/13 10:49:54;;;;;;;4.53;2.42;;;;;;;14.90;52.77;97981.69;4958351;28;20028;-82
2022/12/13 10:52:38;;;;;;;4.18;2.38;;;;;;;14.91;52.92;97972.88;4956992;29;20024;-83
2022/12/13 10:55:20;;;;;;;5.75;2.33;;;;;;;14.87;52.66;97963.50;4943015;29;20012;-84
2022/12/13 10:57:55;;;;;;;4.13;2.22;;;;;;;14.86;52.92;97961.81;4960029;28;20019;-84
2022/12/13 11:00:41;;;;;;;5.88;2.67;;;;;;;14.89;52.99;97969.50;4943123;29;20034;-84
2022/12/13 11:03:12;;;;;;;5.43;2.57;;;;;;;14.85;52.87;97973.25;4959952;29;20008;-84
2022/12/13 11:05:39;;;;;;;5.25;2.33;;;;;;;14.89;53.04;97974.75;4943363;28;20012;-83
2022/12/13 11:08:27;;;;;;;4.90;2.45;;;;;;;14.89;52.99;97966.88;4960487;29;20027;-84
2022/12/13 11:11:03;;;;;;;5.32;2.80;;;;;;;14.85;53.19;97954.84;4960428;29;20031;-84
2022/12/13 11:13:44;;;;;;;5.93;2.90;;;;;;;14.85;53.03;97946.97;4960286;29;20027;-83
2022/12/13 11:16:34;;;;;;;5.90;2.72;;;;;;;14.87;52.97;97947.75;4959522;29;20039;-83
2022/12/13 11:19:06;;;;;;;6.35;2.67;;;;;;;14.89;53.07;97945.88;4960027;29;20060;-84
2022/12/13 11:21:35;;;;;;;5.57;2.92;;;;;;;14.86;53.09;97935.53;4964265;28;20019;-84
2022/12/13 11:24:04;;;;;;;4.80;2.58;;;;;;;14.88;52.89;97939.75;4962457;29;20008;-82
2022/12/13 11:26:34;;;;;;;7.82;3.10;;;;;;;14.88;53.03;97928.44;4961112;29;20031;-84
2022/12/13 11:29:21;;;;;;;3.92;2.13;;;;;;;14.94;52.94;97933.31;4947590;29;20023;-84
2022/12/13 11:32:16;;;;;;;6.32;3.33;;;;;;;14.88;53.13;97924.00;4964648;28;20023;-84
2022/12/13 13:58:56;;;;;;;5.63;3.28;;;;;;;15.20;53.37;97812.63;5056605;23;20055;-76
2022/12/13 14:01:46;;;;;;;7.00;3.58;;;;;;;15.21;53.72;97813.50;4959804;28;20081;-79
2022/12/13 14:04:51;;;;;;;5.45;3.50;;;;;;;15.20;53.57;97807.38;4938869;28;20061;-79
2022/12/13 14:07:44;;;;;;;8.45;4.65;;;;;;;15.23;53.48;97807.19;4961440;28;20141;-79
2022/12/13 14:10:48;;;;;;;6.40;3.50;;;;;;;15.24;53.68;97813.28;4956663;28;20031;-78
2022/12/13 14:13:59;;;;;;;6.40;3.80;;;;;;;15.22;53.53;97808.16;4958928;28;20031;-79
2022/12/13 14:16:38;;;;;;;8.38;4.15;;;;;;;15.23;53.61;97801.94;4963984;28;20038;-79
2022/12/13 14:19:19;;;;;;;6.07;3.38;;;;;;;15.23;53.68;97807.19;4955322;28;20148;-79
2022/12/13 14:22:08;;;;;;;6.90;3.80;;;;;;;15.23;53.83;97807.19;4953774;28;20038;-78
2022/12/13 14:25:09;;;;;;;6.85;3.97;;;;;;;15.25;53.90;97809.75;4955556;28;20104;-79
2022/12/13 14:27:45;;;;;;;6.28;3.65;;;;;;;15.25;53.95;97809.75;4961421;28;20105;-78
2022/12/13 14:30:20;;;;;;;11.15;5.07;;;;;;;15.26;53.93;97806.16;4954104;28;20435;-78